Time;durP1;ratioP1;P1;durP2;ratioP2;P2;SDS_P1;SDS_P2;PMS_P1;PMS_P2;Temp;Humidity;BMP_temperature;BMP_pressure;BME280_temperature;BME280_humidity;BME280_pressure;Samples;Min_cycle;Max_cycle;Signal;HPM_P1;HPM_P2
2021/05/11 00:00:57;;;;;;;11.52;2.67;;;12.60;65.30;;;;;;4998199;28;20489;-80
2021/05/11 00:03:22;;;;;;;11.43;2.30;;;12.60;65.80;;;;;;4997766;28;20030;-81
2021/05/11 00:05:48;;;;;;;11.57;3.05;;;12.60;66.40;;;;;;4997887;28;20401;-80
2021/05/11 00:08:14;;;;;;;7.63;2.05;;;12.60;65.90;;;;;;4980030;28;20054;-80
2021/05/11 00:10:40;;;;;;;8.05;2.30;;;12.60;66.20;;;;;;4977276;28;20061;-80
2021/05/11 00:13:05;;;;;;;7.93;2.03;;;12.60;66.50;;;;;;4994974;28;20026;-80
2021/05/11 00:15:31;;;;;;;9.43;2.38;;;12.60;66.60;;;;;;4997908;28;20029;-80
2021/05/11 00:17:57;;;;;;;7.22;1.70;;;12.50;65.80;;;;;;4980541;28;20034;-80
2021/05/11 00:20:23;;;;;;;4.13;1.50;;;12.50;66.10;;;;;;4980651;28;20149;-81
2021/05/11 00:22:49;;;;;;;7.45;2.53;;;12.50;66.00;;;;;;4979933;28;20495;-81
2021/05/11 00:25:15;;;;;;;9.00;1.73;;;12.50;66.00;;;;;;4973651;28;20034;-81
2021/05/11 00:27:42;;;;;;;5.13;1.70;;;12.50;65.90;;;;;;4996058;28;20037;-81
2021/05/11 00:30:10;;;;;;;6.32;1.70;;;12.40;65.90;;;;;;4997554;28;20104;-81
2021/05/11 00:32:36;;;;;;;7.53;1.95;;;12.40;66.40;;;;;;4977067;28;20033;-81
2021/05/11 00:35:02;;;;;;;5.47;1.88;;;12.40;66.60;;;;;;4991966;28;20022;-81
2021/05/11 00:37:28;;;;;;;7.22;1.30;;;12.30;66.10;;;;;;4980119;28;20022;-81
2021/05/11 00:39:54;;;;;;;8.50;2.25;;;12.30;66.40;;;;;;4997142;28;20397;-81
2021/05/11 00:42:20;;;;;;;5.78;1.48;;;12.20;66.40;;;;;;4997621;28;20022;-81
2021/05/11 00:44:46;;;;;;;8.27;1.67;;;12.20;66.50;;;;;;4984482;28;20033;-81
2021/05/11 00:47:12;;;;;;;8.15;2.10;;;12.20;66.30;;;;;;4997991;28;20381;-81
2021/05/11 00:49:38;;;;;;;6.90;1.85;;;12.20;66.30;;;;;;4997749;28;20062;-81
2021/05/11 00:52:07;;;;;;;6.45;1.73;;;12.20;66.10;;;;;;4996412;28;20038;-81
2021/05/11 00:54:33;;;;;;;6.90;2.65;;;12.20;66.30;;;;;;4997869;28;20460;-81
2021/05/11 00:57:01;;;;;;;4.68;1.48;;;12.20;66.60;;;;;;4996691;28;20023;-81
2021/05/11 00:59:29;;;;;;;8.75;1.90;;;12.20;66.90;;;;;;4996590;28;20045;-81
2021/05/11 01:01:56;;;;;;;8.38;1.80;;;12.20;67.10;;;;;;4996576;28;20063;-81
2021/05/11 01:04:23;;;;;;;5.82;1.70;;;12.10;66.90;;;;;;4997478;28;20034;-81
2021/05/11 01:06:50;;;;;;;3.60;1.63;;;12.10;67.70;;;;;;4995225;28;20520;-81
2021/05/11 01:09:16;;;;;;;8.82;1.80;;;12.10;67.40;;;;;;4988611;28;20026;-81
2021/05/11 01:11:43;;;;;;;5.55;1.60;;;12.10;67.40;;;;;;4996988;28;20050;-80
2021/05/11 01:14:09;;;;;;;9.00;2.00;;;12.00;67.10;;;;;;4997518;28;20111;-80
2021/05/11 01:16:36;;;;;;;7.03;1.48;;;12.00;67.20;;;;;;4997642;28;20057;-80
2021/05/11 01:19:23;;;;;;;4.43;1.88;;;12.00;66.80;;;;;;4997192;28;20434;-80
2021/05/11 01:22:03;;;;;;;9.63;2.85;;;12.00;67.00;;;;;;4983688;28;20030;-81
2021/05/11 01:27:10;;;;;;;8.00;2.05;;;12.00;67.40;;;;;;5001228;28;20030;-81
2021/05/11 01:29:54;;;;;;;6.53;1.63;;;12.00;67.80;;;;;;4995838;28;20520;-81
2021/05/11 01:32:41;;;;;;;8.57;3.17;;;12.00;68.00;;;;;;5001067;28;20057;-81
2021/05/11 01:46:58;;;;;;;5.82;1.77;;;11.90;67.90;;;;;;5001047;28;20054;-80
2021/05/11 01:55:09;;;;;;;8.27;1.60;;;11.90;68.40;;;;;;5001226;28;20400;-80
2021/05/11 02:24:58;;;;;;;8.20;2.55;;;11.70;69.20;;;;;;5000405;28;20117;-80
2021/05/11 02:27:23;;;;;;;9.85;1.98;;;11.70;68.70;;;;;;4999084;28;20026;-80
2021/05/11 02:29:49;;;;;;;7.20;2.38;;;11.70;69.90;;;;;;4999352;28;20142;-80
2021/05/11 02:32:16;;;;;;;7.78;1.90;;;11.70;69.60;;;;;;4981604;28;20033;-79
2021/05/11 02:34:43;;;;;;;7.68;1.73;;;11.70;69.30;;;;;;4999820;28;20400;-79
2021/05/11 02:37:09;;;;;;;6.05;2.33;;;11.70;69.80;;;;;;4999435;28;20054;-80
2021/05/11 02:39:35;;;;;;;5.90;1.65;;;11.70;69.50;;;;;;4999550;28;20050;-79
2021/05/11 02:42:01;;;;;;;5.97;1.63;;;11.60;69.00;;;;;;4999726;28;20022;-80
2021/05/11 02:44:27;;;;;;;8.30;2.35;;;11.60;70.20;;;;;;4982427;28;20038;-80
2021/05/11 02:46:52;;;;;;;9.68;1.92;;;11.60;70.20;;;;;;4999863;28;20400;-79
2021/05/11 02:49:20;;;;;;;12.80;3.13;;;11.60;70.00;;;;;;4999455;28;20058;-80
2021/05/11 02:51:46;;;;;;;7.03;2.20;;;11.60;69.70;;;;;;4999452;28;20034;-80
2021/05/11 02:54:11;;;;;;;8.07;2.50;;;11.50;69.50;;;;;;4999826;28;20092;-80
2021/05/11 02:56:37;;;;;;;7.82;2.03;;;11.50;69.70;;;;;;4999973;28;20477;-80
2021/05/11 02:59:03;;;;;;;8.27;2.28;;;11.50;69.90;;;;;;4995701;28;20030;-80
2021/05/11 03:01:29;;;;;;;11.02;2.53;;;11.50;70.30;;;;;;4999560;28;20096;-80
2021/05/11 03:03:55;;;;;;;9.13;2.10;;;11.40;70.20;;;;;;4999581;28;20050;-80
2021/05/11 03:06:21;;;;;;;6.53;1.95;;;11.40;70.30;;;;;;4999046;28;20030;-80
2021/05/11 03:08:47;;;;;;;13.00;2.35;;;11.30;70.10;;;;;;4999148;28;20121;-80
2021/05/11 03:11:12;;;;;;;6.63;1.85;;;11.30;70.40;;;;;;4999298;28;20022;-80
2021/05/11 03:13:38;;;;;;;9.23;1.90;;;11.30;69.80;;;;;;4981518;28;20121;-80
2021/05/11 03:16:04;;;;;;;6.93;1.90;;;11.20;69.90;;;;;;4999313;28;20099;-80
2021/05/11 03:18:30;;;;;;;7.68;1.80;;;11.20;69.40;;;;;;4998111;28;20026;-80
2021/05/11 03:20:56;;;;;;;7.68;2.10;;;11.20;69.80;;;;;;4998805;28;20037;-80
2021/05/11 03:23:22;;;;;;;6.70;1.80;;;11.20;69.30;;;;;;4998219;28;20038;-80
2021/05/11 03:25:47;;;;;;;5.93;1.80;;;11.20;69.30;;;;;;4998813;28;20469;-80
2021/05/11 03:28:13;;;;;;;7.93;2.17;;;11.20;69.30;;;;;;4998378;28;20033;-80
2021/05/11 03:30:41;;;;;;;10.32;2.05;;;11.20;70.10;;;;;;4998386;28;20101;-80
2021/05/11 03:33:07;;;;;;;5.43;1.90;;;11.20;70.40;;;;;;4998740;28;20385;-80
2021/05/11 03:35:33;;;;;;;6.65;1.80;;;11.10;70.60;;;;;;4998781;28;20023;-80
2021/05/11 03:37:59;;;;;;;8.20;1.80;;;11.10;70.50;;;;;;4997871;28;20033;-80
2021/05/11 03:40:25;;;;;;;5.38;1.70;;;11.00;71.10;;;;;;4998615;28;20026;-81
2021/05/11 03:42:53;;;;;;;6.13;1.90;;;11.00;70.50;;;;;;4980998;28;20552;-81
2021/05/11 03:45:24;;;;;;;7.47;2.17;;;11.00;70.30;;;;;;4981306;28;20572;-81
2021/05/11 03:47:53;;;;;;;6.00;1.80;;;11.00;70.80;;;;;;4998167;28;20041;-81
2021/05/11 03:50:19;;;;;;;8.25;1.92;;;10.90;70.60;;;;;;4998634;28;20030;-80
2021/05/11 03:52:45;;;;;;;9.02;2.13;;;10.90;70.90;;;;;;4998248;28;20033;-80
2021/05/11 03:55:12;;;;;;;5.50;1.98;;;10.90;71.70;;;;;;4998517;28;20050;-80
2021/05/11 03:57:37;;;;;;;8.18;2.53;;;10.90;71.30;;;;;;4998049;28;20022;-80
2021/05/11 04:00:05;;;;;;;9.68;2.40;;;10.80;71.10;;;;;;4997919;28;20022;-80
2021/05/11 04:02:31;;;;;;;6.70;2.08;;;10.80;70.40;;;;;;4997856;28;20105;-81
2021/05/11 04:04:56;;;;;;;7.03;2.45;;;10.80;70.30;;;;;;4997996;28;20027;-81
2021/05/11 04:07:22;;;;;;;6.97;1.80;;;10.80;70.10;;;;;;4998003;28;20030;-81
2021/05/11 04:09:57;;;;;;;7.40;2.33;;;10.70;70.20;;;;;;4998054;28;20022;-81
2021/05/11 04:12:55;;;;;;;5.63;1.70;;;10.70;69.90;;;;;;4980736;28;20034;-81
2021/05/11 04:18:05;;;;;;;7.15;2.17;;;10.70;70.00;;;;;;4997955;28;20464;-81
2021/05/11 04:20:31;;;;;;;6.65;2.20;;;10.60;70.00;;;;;;4998049;28;20022;-81
2021/05/11 04:22:57;;;;;;;9.93;2.08;;;10.60;70.20;;;;;;4997763;28;20084;-81
2021/05/11 04:25:23;;;;;;;4.05;1.85;;;10.60;70.60;;;;;;4997472;28;20029;-81
2021/05/11 04:27:49;;;;;;;8.57;2.70;;;10.60;70.80;;;;;;4997538;28;20037;-81
2021/05/11 04:30:16;;;;;;;7.05;2.30;;;10.50;71.10;;;;;;4997850;28;20033;-81
2021/05/11 04:32:41;;;;;;;8.55;2.20;;;10.50;71.10;;;;;;4997542;28;20035;-81
2021/05/11 04:35:07;;;;;;;5.80;2.30;;;10.50;71.70;;;;;;4997659;28;20397;-81
2021/05/11 04:37:33;;;;;;;7.85;2.35;;;10.50;71.80;;;;;;4997324;28;20473;-81
2021/05/11 04:39:59;;;;;;;6.90;2.13;;;10.50;71.60;;;;;;4997540;28;20082;-81
2021/05/11 04:42:25;;;;;;;6.55;2.00;;;10.50;71.90;;;;;;4980368;28;20022;-80
2021/05/11 04:44:52;;;;;;;5.82;2.42;;;10.50;71.70;;;;;;4997961;28;20392;-80
2021/05/11 04:48:00;;;;;;;6.90;2.00;;;10.40;71.60;;;;;;4997515;28;20018;-80
2021/05/11 04:50:07;;;;;;;8.27;2.05;;;10.40;71.30;;;;;;4986077;28;20031;-80
2021/05/11 04:52:34;;;;;;;4.55;1.60;;;10.40;71.00;;;;;;4997812;28;20031;-80
2021/05/11 04:55:00;;;;;;;4.07;1.88;;;10.40;70.30;;;;;;4996640;28;20389;-80
2021/05/11 04:57:26;;;;;;;5.65;2.05;;;10.40;69.60;;;;;;4996206;28;20046;-80
2021/05/11 04:59:52;;;;;;;5.03;1.80;;;10.40;70.00;;;;;;4996576;28;20022;-81
2021/05/11 05:02:17;;;;;;;6.13;2.40;;;10.40;69.80;;;;;;4996707;28;20081;-80
2021/05/11 05:04:43;;;;;;;5.78;2.17;;;10.40;70.00;;;;;;4997237;28;20022;-78
2021/05/11 05:07:09;;;;;;;4.28;1.50;;;10.40;70.30;;;;;;4996627;28;20576;-79
2021/05/11 05:09:35;;;;;;;7.50;1.77;;;10.40;70.00;;;;;;4979411;28;20030;-81
2021/05/11 05:12:00;;;;;;;7.45;1.73;;;10.40;70.10;;;;;;4997137;28;20109;-81
2021/05/11 05:14:26;;;;;;;8.75;2.13;;;10.40;70.80;;;;;;4996612;28;20058;-79
2021/05/11 05:16:52;;;;;;;5.82;1.60;;;10.40;70.80;;;;;;4989410;28;20094;-80
2021/05/11 05:19:18;;;;;;;7.25;2.10;;;10.40;70.90;;;;;;4997330;28;20050;-78
2021/05/11 05:21:44;;;;;;;4.90;1.70;;;10.40;71.20;;;;;;4996405;28;20405;-81
2021/05/11 05:24:13;;;;;;;7.25;2.13;;;10.50;71.20;;;;;;4979710;28;20029;-79
2021/05/11 05:26:39;;;;;;;6.82;2.13;;;10.50;71.30;;;;;;4997351;28;20022;-79
2021/05/11 05:29:05;;;;;;;6.60;2.15;;;10.50;71.40;;;;;;4996569;28;20038;-79
2021/05/11 05:31:31;;;;;;;5.75;1.77;;;10.50;71.50;;;;;;4997199;28;20033;-77
2021/05/11 05:33:58;;;;;;;5.95;1.77;;;10.50;70.90;;;;;;4996746;28;20023;-76
2021/05/11 05:36:24;;;;;;;6.93;1.85;;;10.50;71.00;;;;;;4997472;28;20054;-75
2021/05/11 05:38:50;;;;;;;6.18;1.80;;;10.60;71.00;;;;;;4996790;28;20053;-81
2021/05/11 05:41:23;;;;;;;5.75;1.90;;;10.60;71.00;;;;;;4996089;28;20030;-82
2021/05/11 05:43:50;;;;;;;8.13;2.15;;;10.60;70.80;;;;;;4996959;28;20033;-80
2021/05/11 05:46:16;;;;;;;7.95;2.03;;;10.70;70.60;;;;;;4996302;28;20023;-79
2021/05/11 05:48:43;;;;;;;6.90;1.85;;;10.70;70.80;;;;;;4996976;28;20041;-81
2021/05/11 05:51:10;;;;;;;8.57;2.00;;;10.80;70.70;;;;;;4995679;28;20045;-79
2021/05/11 05:53:37;;;;;;;5.60;1.70;;;10.80;71.10;;;;;;4997062;28;20019;-77
2021/05/11 05:56:04;;;;;;;5.97;1.70;;;10.90;71.10;;;;;;4997283;28;20131;-75
2021/05/11 05:58:31;;;;;;;7.80;1.77;;;10.90;70.50;;;;;;4997215;28;20033;-78
2021/05/11 06:01:01;;;;;;;7.03;1.70;;;10.90;70.80;;;;;;4979842;28;20062;-79
2021/05/11 06:03:37;;;;;;;4.88;2.20;;;11.00;70.60;;;;;;4979145;28;20022;-79
2021/05/11 06:06:04;;;;;;;6.15;1.80;;;11.00;70.60;;;;;;4997035;28;20085;-80
2021/05/11 06:08:31;;;;;;;5.00;1.60;;;11.10;70.50;;;;;;4999969;28;20021;-80
2021/05/11 06:11:06;;;;;;;7.30;1.70;;;11.10;70.80;;;;;;5000630;28;20093;-81
2021/05/11 06:13:46;;;;;;;5.57;1.88;;;11.20;70.90;;;;;;5000499;28;20026;-81
2021/05/11 06:18:57;;;;;;;5.53;1.50;;;11.30;70.50;;;;;;4990181;28;20595;-80
2021/05/11 06:21:23;;;;;;;7.97;1.67;;;11.40;70.70;;;;;;5000047;28;20033;-80
2021/05/11 06:23:49;;;;;;;7.65;2.25;;;11.40;70.80;;;;;;5000026;28;20034;-80
2021/05/11 06:26:15;;;;;;;7.25;1.92;;;11.50;70.90;;;;;;5000390;28;20037;-80
2021/05/11 06:28:43;;;;;;;5.10;1.85;;;11.60;71.30;;;;;;5000552;28;20031;-80
2021/05/11 06:31:09;;;;;;;7.88;1.60;;;11.70;71.00;;;;;;5000029;28;20030;-80
2021/05/11 06:33:36;;;;;;;10.27;2.08;;;11.80;70.60;;;;;;5000616;28;20429;-80
2021/05/11 06:36:02;;;;;;;7.25;2.20;;;11.90;70.60;;;;;;4982495;28;20049;-80
2021/05/11 06:38:29;;;;;;;5.93;1.77;;;12.00;70.60;;;;;;5000176;28;20038;-81
2021/05/11 06:40:55;;;;;;;6.40;1.77;;;12.10;70.30;;;;;;5000062;28;20058;-81
2021/05/11 06:43:25;;;;;;;5.15;2.10;;;12.10;70.30;;;;;;5000193;28;20029;-81
2021/05/11 06:48:34;;;;;;;7.88;1.67;;;12.30;70.40;;;;;;5000284;28;20504;-81
2021/05/11 06:53:36;;;;;;;7.80;1.95;;;12.60;69.70;;;;;;4996996;28;20049;-81
2021/05/11 06:56:03;;;;;;;7.88;2.13;;;12.70;70.60;;;;;;4982379;28;20027;-80
2021/05/11 06:58:29;;;;;;;6.97;2.20;;;12.90;69.90;;;;;;4999700;28;20045;-81
2021/05/11 07:00:55;;;;;;;8.40;2.00;;;13.10;69.50;;;;;;4999800;28;20035;-81
2021/05/11 07:03:21;;;;;;;9.02;2.35;;;13.30;69.00;;;;;;4999604;28;20513;-82
2021/05/11 07:05:49;;;;;;;6.72;2.03;;;13.50;68.70;;;;;;4999693;28;20022;-82
2021/05/11 07:08:18;;;;;;;8.70;2.10;;;13.70;68.10;;;;;;4999460;28;20080;-82
2021/05/11 07:10:49;;;;;;;5.38;2.03;;;14.00;67.90;;;;;;4999641;28;20029;-82
2021/05/11 07:13:15;;;;;;;7.10;2.20;;;14.30;68.50;;;;;;4999547;28;20026;-82
2021/05/11 07:15:43;;;;;;;6.03;2.03;;;14.60;67.90;;;;;;4999207;28;20045;-82
2021/05/11 07:18:20;;;;;;;8.00;2.00;;;14.90;66.10;;;;;;4999445;28;20054;-82
2021/05/11 07:20:49;;;;;;;6.78;1.88;;;15.20;65.70;;;;;;4999095;28;20482;-82
2021/05/11 07:23:20;;;;;;;8.18;1.98;;;15.50;65.80;;;;;;4998892;28;20068;-82
2021/05/11 07:31:03;;;;;;;7.55;1.90;;;16.30;62.30;;;;;;4999098;28;20748;-81
2021/05/11 07:33:49;;;;;;;6.40;1.83;;;16.50;61.90;;;;;;4999298;28;20035;-81
2021/05/11 07:36:16;;;;;;;6.93;1.77;;;16.70;61.20;;;;;;4988753;28;20033;-81
2021/05/11 07:38:42;;;;;;;5.95;1.70;;;16.90;61.50;;;;;;4998735;28;20905;-81
2021/05/11 07:41:09;;;;;;;6.05;1.85;;;17.10;61.70;;;;;;4999127;28;20032;-82
2021/05/11 07:43:38;;;;;;;7.40;2.17;;;17.40;61.90;;;;;;4998811;28;20045;-82
2021/05/11 08:15:39;;;;;;;5.40;1.92;;;20.30;52.30;;;;;;4997255;28;20496;-82
2021/05/11 08:18:26;;;;;;;5.40;1.80;;;20.50;53.40;;;;;;4997521;28;20089;-82
2021/05/11 08:29:05;;;;;;;5.88;1.52;;;21.20;48.30;;;;;;4997430;28;20042;-82
2021/05/11 08:31:31;;;;;;;5.25;1.30;;;21.20;50.40;;;;;;4998262;28;20469;-82
2021/05/11 08:33:57;;;;;;;6.15;1.45;;;21.30;49.30;;;;;;4998102;28;20025;-82
2021/05/11 08:36:25;;;;;;;4.60;1.60;;;21.50;48.40;;;;;;4997995;28;20022;-81
2021/05/11 08:38:51;;;;;;;6.90;1.58;;;21.70;47.20;;;;;;4997833;28;20022;-82
2021/05/11 08:41:16;;;;;;;5.18;1.20;;;21.70;47.70;;;;;;4980685;28;20034;-82
2021/05/11 08:43:45;;;;;;;5.57;1.52;;;21.80;47.70;;;;;;4997852;28;20019;-83
2021/05/11 08:46:11;;;;;;;5.20;1.65;;;21.90;48.50;;;;;;4997893;28;20022;-83
2021/05/11 08:48:37;;;;;;;4.68;1.38;;;22.30;49.20;;;;;;4997913;28;20024;-82
2021/05/11 08:54:03;;;;;;;5.18;1.35;;;22.40;47.10;;;;;;4995665;28;20022;-82
2021/05/11 09:27:23;;;;;;;5.78;1.40;;;21.90;46.70;;;;;;4997799;28;20621;-83
2021/05/11 10:32:17;;;;;;;7.95;1.27;;;28.10;38.00;;;;;;5000176;28;20033;-85
2021/05/11 10:48:22;;;;;;;5.07;1.27;;;30.10;35.80;;;;;;5000334;28;20058;-84
2021/05/11 10:50:55;;;;;;;4.50;1.58;;;29.90;36.00;;;;;;4992345;28;20023;-84
2021/05/11 10:53:46;;;;;;;6.85;1.45;;;29.80;34.70;;;;;;4993228;28;20030;-85
2021/05/11 10:56:42;;;;;;;5.93;1.15;;;29.70;35.00;;;;;;5000016;28;20079;-84
2021/05/11 11:02:24;;;;;;;4.63;1.33;;;29.60;35.50;;;;;;5000024;28;20057;-83
2021/05/11 11:04:46;;;;;;;8.48;1.30;;;29.60;34.90;;;;;;4997737;28;20274;-83
2021/05/11 11:07:14;;;;;;;5.95;1.42;;;29.00;32.20;;;;;;4982377;28;20037;-84
2021/05/11 11:09:53;;;;;;;5.75;1.25;;;28.10;33.60;;;;;;4999533;28;20018;-84
2021/05/11 11:12:21;;;;;;;5.38;1.30;;;27.50;34.40;;;;;;4999502;28;20452;-84
2021/05/11 11:14:47;;;;;;;5.38;1.20;;;27.40;35.70;;;;;;4981817;28;20014;-82
2021/05/11 11:17:15;;;;;;;5.13;1.45;;;27.00;33.90;;;;;;4999455;28;20121;-82
2021/05/11 11:19:41;;;;;;;5.35;1.15;;;26.30;33.60;;;;;;4999411;28;20065;-83
2021/05/11 11:24:57;;;;;;;4.55;1.20;;;24.50;36.50;;;;;;4999398;28;20081;-82
2021/05/11 11:27:27;;;;;;;5.78;1.25;;;23.70;37.50;;;;;;4999168;28;20029;-83
2021/05/11 11:30:03;;;;;;;6.50;1.27;;;23.10;38.80;;;;;;4999377;28;20076;-83
2021/05/11 11:32:29;;;;;;;3.97;1.42;;;22.90;39.80;;;;;;4981556;28;20057;-84
2021/05/11 11:34:56;;;;;;;5.68;1.42;;;23.20;40.40;;;;;;4999108;28;20014;-84
2021/05/11 11:37:26;;;;;;;10.52;1.50;;;23.50;40.80;;;;;;4998375;28;20018;-79
2021/05/11 11:39:54;;;;;;;6.22;1.67;;;23.90;39.00;;;;;;4999177;28;20093;-79
2021/05/11 11:42:22;;;;;;;7.78;1.50;;;24.20;38.30;;;;;;4993511;28;20023;-80
2021/05/11 11:44:56;;;;;;;7.53;1.40;;;24.00;38.70;;;;;;4995375;28;20026;-80
2021/05/11 11:47:23;;;;;;;5.32;1.25;;;23.90;38.80;;;;;;4996958;28;20022;-79
2021/05/11 11:49:53;;;;;;;5.30;1.50;;;23.50;39.40;;;;;;4998646;28;20030;-78
2021/05/11 11:52:40;;;;;;;7.30;1.95;;;23.00;39.80;;;;;;4985951;28;20022;-78
2021/05/11 11:57:55;;;;;;;4.88;1.38;;;22.00;41.60;;;;;;4997331;28;20022;-79
2021/05/11 12:00:30;;;;;;;3.15;1.20;;;21.90;42.80;;;;;;4998191;28;20034;-79
2021/05/11 12:03:02;;;;;;;4.15;0.82;;;21.90;42.70;;;;;;4998534;28;20018;-79
2021/05/11 12:05:30;;;;;;;5.07;0.90;;;22.10;43.10;;;;;;4976375;28;20117;-79
2021/05/11 12:08:23;;;;;;;5.70;1.10;;;22.00;42.70;;;;;;4994267;28;20277;-79
2021/05/11 12:10:54;;;;;;;3.13;0.90;;;21.70;42.80;;;;;;4988850;28;20045;-79
2021/05/11 12:13:28;;;;;;;3.63;0.82;;;21.50;43.90;;;;;;4998216;28;20395;-79
2021/05/11 12:16:12;;;;;;;3.05;1.00;;;21.20;43.80;;;;;;4997809;28;20027;-79
2021/05/11 12:18:44;;;;;;;5.90;1.20;;;20.80;44.90;;;;;;4993172;28;21417;-77
2021/05/11 12:21:10;;;;;;;3.53;1.08;;;20.50;45.70;;;;;;4993066;28;20022;-79
2021/05/11 12:23:36;;;;;;;3.47;0.85;;;20.30;46.20;;;;;;4996745;28;20049;-79
2021/05/11 12:26:07;;;;;;;3.25;0.88;;;20.20;46.70;;;;;;4997604;28;20026;-79
2021/05/11 12:28:35;;;;;;;4.05;0.82;;;20.10;46.80;;;;;;4998051;28;20077;-79
2021/05/11 12:31:06;;;;;;;2.83;0.85;;;20.00;46.20;;;;;;4997745;28;20165;-79
2021/05/11 12:33:40;;;;;;;2.85;0.85;;;19.80;46.80;;;;;;4997995;28;20026;-79
2021/05/11 12:36:21;;;;;;;3.50;0.70;;;19.80;46.90;;;;;;4997992;28;20026;-79
2021/05/11 12:38:48;;;;;;;4.28;0.93;;;19.70;47.20;;;;;;4997696;28;20022;-79
2021/05/11 12:41:32;;;;;;;2.72;0.70;;;19.60;47.40;;;;;;4997880;28;20026;-79
2021/05/11 12:44:02;;;;;;;5.43;0.85;;;19.50;47.30;;;;;;4997821;28;20026;-79
2021/05/11 12:46:35;;;;;;;3.85;0.90;;;19.40;49.10;;;;;;4997808;28;20437;-79
2021/05/11 12:49:18;;;;;;;4.68;1.13;;;19.20;50.90;;;;;;4998036;28;20436;-79
2021/05/11 12:51:51;;;;;;;4.65;1.20;;;19.10;51.00;;;;;;4983374;28;20030;-79
2021/05/11 12:54:40;;;;;;;3.10;1.10;;;19.10;51.30;;;;;;4997827;28;20146;-77
2021/05/11 13:25:57;;;;;;;6.45;1.25;;;18.60;52.70;;;;;;5001292;28;20112;-79
2021/05/11 13:28:30;;;;;;;9.32;1.70;;;18.40;54.50;;;;;;5001324;28;20027;-79
2021/05/11 13:31:01;;;;;;;9.05;1.70;;;18.20;56.70;;;;;;5000998;28;20022;-80
2021/05/11 13:33:36;;;;;;;6.93;1.60;;;17.90;58.10;;;;;;5001299;28;20438;-80
2021/05/11 13:36:01;;;;;;;4.57;1.30;;;17.60;58.30;;;;;;5000991;28;20054;-80
2021/05/11 13:38:27;;;;;;;3.47;0.90;;;17.20;59.10;;;;;;5000856;28;20027;-80
2021/05/11 13:40:53;;;;;;;1.88;0.70;;;16.80;58.70;;;;;;5001092;28;20031;-80
2021/05/11 13:43:20;;;;;;;3.03;0.60;;;16.50;57.90;;;;;;4993169;28;20559;-80
2021/05/11 13:45:46;;;;;;;3.55;0.85;;;16.20;58.70;;;;;;4987076;28;20109;-80
2021/05/11 13:51:20;;;;;;;2.75;0.75;;;15.90;59.90;;;;;;4994825;28;20031;-81
2021/05/11 13:53:29;;;;;;;2.63;0.55;;;15.90;60.30;;;;;;4987556;28;20218;-81
2021/05/11 13:56:16;;;;;;;5.60;1.00;;;15.90;61.80;;;;;;5000815;28;20105;-80
2021/05/11 14:04:01;;;;;;;5.63;1.00;;;16.10;62.40;;;;;;5000749;28;20031;-79
2021/05/11 14:06:26;;;;;;;3.17;1.00;;;16.10;63.00;;;;;;5000552;28;20022;-80
2021/05/11 14:08:52;;;;;;;6.57;1.33;;;16.20;63.80;;;;;;4984039;28;20042;-80
2021/05/11 14:11:18;;;;;;;4.88;1.25;;;16.30;64.40;;;;;;5000112;28;20418;-79
2021/05/11 14:13:44;;;;;;;7.15;1.10;;;16.50;63.40;;;;;;5000616;28;20102;-79
2021/05/11 14:16:10;;;;;;;6.25;1.40;;;16.60;62.10;;;;;;4999990;28;20054;-80
2021/05/11 14:18:36;;;;;;;9.32;2.00;;;16.70;62.20;;;;;;5000542;28;20026;-79
2021/05/11 14:21:02;;;;;;;6.38;1.50;;;16.80;62.00;;;;;;4999946;28;20058;-79
2021/05/11 14:23:28;;;;;;;8.05;1.80;;;16.90;61.00;;;;;;5000208;28;20106;-79
2021/05/11 14:25:54;;;;;;;8.18;1.88;;;16.90;60.40;;;;;;4999993;28;20114;-79
2021/05/11 14:28:20;;;;;;;7.63;2.35;;;16.90;60.50;;;;;;4999183;28;20073;-79
2021/05/11 14:30:46;;;;;;;9.90;2.20;;;17.00;59.80;;;;;;4999877;28;20037;-79
2021/05/11 14:33:11;;;;;;;15.95;3.28;;;17.00;59.60;;;;;;5000198;28;20033;-80
2021/05/11 14:35:37;;;;;;;9.75;2.42;;;17.10;58.90;;;;;;4999759;28;20085;-79
2021/05/11 14:38:03;;;;;;;8.10;2.63;;;17.00;58.60;;;;;;4999966;28;20027;-79
2021/05/11 14:40:29;;;;;;;9.70;2.55;;;17.10;58.90;;;;;;4999818;28;20026;-79
2021/05/11 14:42:56;;;;;;;10.30;2.67;;;17.10;58.70;;;;;;4999880;28;20022;-79
2021/05/11 14:45:22;;;;;;;6.25;1.65;;;17.20;58.30;;;;;;4999630;28;20018;-79
2021/05/11 14:47:48;;;;;;;8.90;1.83;;;17.20;57.50;;;;;;4999939;28;20057;-79
2021/05/11 14:50:16;;;;;;;6.22;1.70;;;17.20;57.20;;;;;;4996409;28;20413;-79
2021/05/11 14:52:42;;;;;;;9.77;2.47;;;17.10;57.60;;;;;;4992515;28;20026;-79
2021/05/11 14:55:10;;;;;;;6.68;1.95;;;17.20;57.60;;;;;;4999462;28;20377;-79
2021/05/11 14:57:37;;;;;;;7.97;2.15;;;17.20;56.90;;;;;;4999662;28;20516;-79
2021/05/11 15:00:04;;;;;;;10.05;2.00;;;17.20;56.60;;;;;;4999218;28;20018;-79
2021/05/11 15:02:29;;;;;;;9.82;2.13;;;17.20;57.40;;;;;;4982138;28;20034;-78
2021/05/11 15:04:55;;;;;;;6.78;2.10;;;17.40;57.10;;;;;;4976302;28;20490;-80
2021/05/11 15:07:21;;;;;;;10.80;2.17;;;17.40;54.70;;;;;;4984371;28;20481;-79
2021/05/11 15:09:47;;;;;;;8.18;2.00;;;17.40;54.70;;;;;;4998684;28;20088;-78
2021/05/11 15:12:13;;;;;;;7.35;2.03;;;17.40;54.50;;;;;;4996721;28;20081;-77
2021/05/11 15:14:39;;;;;;;6.93;2.00;;;17.40;54.30;;;;;;4998809;28;20507;-79
2021/05/11 15:17:58;;;;;;;7.28;2.30;;;17.40;53.70;;;;;;4999238;28;20073;-78
2021/05/11 15:19:58;;;;;;;9.07;2.42;;;17.40;53.50;;;;;;4989452;28;20030;-78
2021/05/11 15:22:25;;;;;;;7.55;2.25;;;17.40;53.90;;;;;;4999107;28;20026;-78
2021/05/11 15:24:51;;;;;;;10.30;2.60;;;17.40;53.70;;;;;;4981691;28;20382;-78
2021/05/11 15:27:17;;;;;;;8.38;2.20;;;17.40;53.50;;;;;;4992537;28;20022;-78
2021/05/11 15:29:44;;;;;;;7.47;2.42;;;17.50;53.30;;;;;;4998572;28;20042;-78
2021/05/11 15:32:39;;;;;;;9.50;2.20;;;17.40;53.40;;;;;;4987522;28;20031;-79
2021/05/11 15:35:13;;;;;;;11.77;3.03;;;17.50;53.50;;;;;;4997074;28;20018;-78
2021/05/11 15:37:40;;;;;;;14.95;3.17;;;17.50;52.90;;;;;;4996516;28;20022;-77
2021/05/11 15:40:09;;;;;;;8.20;2.40;;;17.50;52.70;;;;;;4998796;28;20508;-79
2021/05/11 15:42:36;;;;;;;8.55;2.20;;;17.50;52.40;;;;;;4981108;28;20046;-79
2021/05/11 15:45:04;;;;;;;14.32;3.10;;;17.40;51.90;;;;;;4998730;28;20473;-80
2021/05/11 15:47:30;;;;;;;10.73;2.67;;;17.40;51.70;;;;;;4998610;28;20038;-78
2021/05/11 15:49:56;;;;;;;8.80;1.85;;;17.40;51.80;;;;;;4998297;28;20022;-79
2021/05/11 15:52:22;;;;;;;9.98;1.95;;;17.50;52.50;;;;;;4982814;28;20085;-79
2021/05/11 15:54:49;;;;;;;9.43;2.03;;;17.40;51.80;;;;;;4981345;28;20385;-79
2021/05/11 15:57:15;;;;;;;9.63;2.20;;;17.40;51.80;;;;;;4996138;28;20018;-79
2021/05/11 15:59:41;;;;;;;9.18;2.10;;;17.40;52.10;;;;;;4997685;28;20016;-79
2021/05/11 16:02:07;;;;;;;8.98;2.47;;;17.30;51.40;;;;;;4998373;28;20022;-77
2021/05/11 16:04:33;;;;;;;8.77;2.05;;;17.30;51.90;;;;;;4998243;28;20026;-76
2021/05/11 16:06:59;;;;;;;11.35;2.08;;;17.30;51.40;;;;;;4997669;28;20500;-76
2021/05/11 16:09:25;;;;;;;11.48;2.20;;;17.20;51.80;;;;;;4997844;28;20025;-76
2021/05/11 16:11:51;;;;;;;9.52;1.98;;;17.20;51.50;;;;;;4997349;28;20492;-79
2021/05/11 16:14:17;;;;;;;9.55;2.20;;;17.20;51.30;;;;;;4997930;28;20050;-83
2021/05/11 16:16:42;;;;;;;9.02;2.30;;;17.20;51.20;;;;;;4996571;28;20456;-82
2021/05/11 16:19:08;;;;;;;6.82;2.08;;;17.20;51.30;;;;;;4996908;28;20057;-83
2021/05/11 16:21:35;;;;;;;7.93;2.22;;;17.30;50.30;;;;;;4979043;28;20034;-83
2021/05/11 16:24:01;;;;;;;9.20;1.90;;;17.20;49.50;;;;;;4997496;28;20393;-82
2021/05/11 16:26:27;;;;;;;8.65;2.22;;;17.20;49.70;;;;;;4997621;28;20031;-80
2021/05/11 16:28:54;;;;;;;8.10;2.10;;;17.10;50.20;;;;;;4995584;28;20034;-81
2021/05/11 16:31:21;;;;;;;8.80;2.20;;;17.10;49.70;;;;;;4991375;28;20042;-81
2021/05/11 16:33:47;;;;;;;9.35;2.40;;;17.10;50.40;;;;;;4995651;28;20481;-81
2021/05/11 16:36:14;;;;;;;12.38;2.30;;;17.10;50.90;;;;;;4997262;28;20031;-82
2021/05/11 16:38:40;;;;;;;7.28;2.58;;;17.10;50.50;;;;;;4996957;28;20022;-82
2021/05/11 16:41:06;;;;;;;9.73;2.47;;;17.00;50.40;;;;;;4997087;28;20531;-82
2021/05/11 16:43:33;;;;;;;12.55;2.88;;;17.00;50.90;;;;;;4997329;28;20026;-81
2021/05/11 16:46:03;;;;;;;9.85;2.50;;;16.90;51.30;;;;;;4994621;28;20053;-82
2021/05/11 16:48:33;;;;;;;11.65;3.03;;;16.80;51.40;;;;;;4994682;28;20033;-80
2021/05/11 16:50:59;;;;;;;11.85;2.83;;;16.80;51.60;;;;;;4996268;28;20034;-80
2021/05/11 16:53:26;;;;;;;8.13;2.08;;;16.80;51.40;;;;;;4993116;28;20027;-80
2021/05/11 16:55:52;;;;;;;10.93;2.63;;;16.80;51.80;;;;;;4994825;28;20104;-80
2021/05/11 16:58:17;;;;;;;8.57;2.50;;;16.80;52.00;;;;;;4988669;28;20053;-79
2021/05/11 17:00:44;;;;;;;7.40;2.08;;;16.80;52.10;;;;;;4993175;28;20037;-80
2021/05/11 17:03:11;;;;;;;10.15;2.35;;;16.80;51.40;;;;;;4992575;28;20026;-80
2021/05/11 17:05:37;;;;;;;5.93;1.80;;;16.70;50.90;;;;;;4974939;28;20401;-81
2021/05/11 17:08:04;;;;;;;9.70;1.95;;;16.60;51.30;;;;;;4993657;28;20030;-81